LavenderCAM.net
Leatherhead Weather
 
Leatherhead Weather
 
 





Aviation weather for

London Heathrow (EGLL) and London Gatwick (EGKK)



London Heathrow (EGLL) METAR / Surface Actual
London / Heathrow Airport, United Kingdom (EGLL) 51-29N 000-27W 0M
Mar 04, 2024 - 06:20 PM EST / 2024.03.04 2320 UTC
Wind: from the SE (140 degrees) at 12 MPH (10 KT):0
Visibility: greater than 7 mile(s):0
Sky conditions: overcast
Temperature: 42 F (6 C)
Dew Point: 41 F (5 C)
Relative Humidity: 93%
Pressure (altimeter): 29.77 in. Hg (1008 hPa)
ob: EGLL 042320Z AUTO 14010KT 9999 OVC010 06/05 Q1008
cycle: 23
London Heathrow (EGLL) TAF / Forecast
2024/03/04 18:16
TAF EGLL 041706Z 0418/0524 14012KT 9999 SCT025 
      TEMPO 0418/0423 15015G25KT 
      TEMPO 0418/0501 8000 -RA BKN012 PROB30 
      TEMPO 0421/0501 4000 RADZ BKN008 
      BECMG 0500/0503 VRB03KT 
      TEMPO 0502/0510 6000 BKN004 PROB30 0503/0508 0300 FG VV/// 
      BECMG 0509/0512 33010KT PROB30 
      TEMPO 0512/0517 7000 SHRA


London Gatwick (EGKK) METAR / Surface Actual
London / Gatwick Airport, United Kingdom (EGKK) 51-09N 000-11W 0M
Mar 04, 2024 - 06:20 PM EST / 2024.03.04 2320 UTC
Wind: from the SE (140 degrees) at 7 MPH (6 KT) (direction variable):0
Visibility: 4 mile(s):0
Sky conditions: mostly cloudy
Weather: light rain
Temperature: 42 F (6 C)
Dew Point: 41 F (5 C)
Relative Humidity: 93%
Pressure (altimeter): 29.77 in. Hg (1008 hPa)
ob: EGKK 042320Z 14006KT 110V170 7000 -RA BKN006 06/05 Q1008
cycle: 23
London Gatwick (EGKK) TAF / Forecast
2024/03/04 18:16
TAF EGKK 041706Z 0418/0524 15012KT 9999 FEW030 
      TEMPO 0418/0501 7000 RA BKN010 PROB30 
      TEMPO 0418/0422 15015G25KT PROB30 
      TEMPO 0421/0503 4000 RADZ BR BKN004 
      BECMG 0501/0504 29004KT PROB30 0503/0507 0300 FG VV/// PROB40 
      TEMPO 0507/0516 5000 SHRA BKN014 BKN025TCU